Time;durP1;ratioP1;P1;durP2;ratioP2;P2;SDS_P1;SDS_P2;PMS_P1;PMS_P2;Temp;Humidity;BMP_temperature;BMP_pressure;BME280_temperature;BME280_humidity;BME280_pressure;Samples;Min_cycle;Max_cycle;Signal;HPM_P1;HPM_P2
2022/07/21 00:01:12;;;;;;;14.13;12.65;;;21.90;99.90;;;21.95;100.00;100770.13;4965276;28;20504;-76
2022/07/21 00:03:39;;;;;;;14.52;13.10;;;21.80;99.90;;;21.95;100.00;100765.63;4950859;28;20126;-77
2022/07/21 00:06:07;;;;;;;14.50;13.00;;;21.80;99.90;;;21.95;100.00;100772.81;4965946;28;20055;-76
2022/07/21 00:08:34;;;;;;;13.93;12.52;;;22.20;99.90;;;21.94;100.00;100781.81;4966218;28;20039;-76
2022/07/21 00:11:01;;;;;;;14.43;13.02;;;21.80;99.90;;;21.86;100.00;100795.69;4964916;28;20049;-76
2022/07/21 00:13:28;;;;;;;14.57;13.10;;;21.80;99.90;;;21.86;100.00;100789.47;4964659;28;20176;-76
2022/07/21 00:15:55;;;;;;;16.25;14.25;;;21.80;99.90;;;21.79;100.00;100776.50;4950791;28;20512;-76
2022/07/21 00:18:23;;;;;;;15.68;13.93;;;21.80;99.90;;;21.85;100.00;100788.59;4981209;28;20050;-76
2022/07/21 00:20:50;;;;;;;16.67;13.93;;;21.80;99.90;;;21.88;100.00;100777.72;4969166;28;20057;-76
2022/07/21 00:23:17;;;;;;;17.33;14.00;;;21.70;99.90;;;21.89;100.00;100782.09;4984300;28;20543;-77
2022/07/21 00:25:44;;;;;;;14.98;13.38;;;21.80;99.90;;;21.91;100.00;100790.03;4984705;28;20046;-76
2022/07/21 00:28:11;;;;;;;17.58;15.25;;;21.80;99.90;;;21.87;100.00;100785.84;4969699;28;20574;-77
2022/07/21 00:30:38;;;;;;;14.82;13.45;;;21.80;99.90;;;21.85;100.00;100785.06;4983789;28;20072;-77
2022/07/21 00:33:05;;;;;;;16.75;15.13;;;21.80;99.90;;;21.81;100.00;100798.66;4968159;28;20065;-77
2022/07/21 00:35:32;;;;;;;20.10;15.15;;;21.80;99.90;;;21.77;100.00;100807.00;4952316;28;20050;-76
2022/07/21 00:38:00;;;;;;;16.77;14.98;;;22.10;99.90;;;21.86;100.00;100803.75;4981361;28;20473;-76
2022/07/21 00:40:27;;;;;;;18.15;16.35;;;21.80;99.90;;;21.65;100.00;100798.78;4980417;28;20054;-76
2022/07/21 00:42:56;;;;;;;16.65;13.95;;;21.80;99.90;;;21.79;100.00;100807.75;4980815;28;20039;-77
2022/07/21 00:45:23;;;;;;;15.52;13.55;;;21.70;99.90;;;21.80;100.00;100813.03;4980950;28;20050;-76
2022/07/21 00:47:50;;;;;;;16.45;14.98;;;21.70;99.90;;;21.81;100.00;100805.84;4975560;28;20039;-77
2022/07/21 00:50:20;;;;;;;20.73;15.00;;;21.70;99.90;;;21.80;100.00;100805.00;4983992;28;20047;-77
2022/07/21 00:52:48;;;;;;;16.92;15.20;;;21.70;99.90;;;21.68;100.00;100809.28;4983166;28;20047;-76
2022/07/21 00:55:18;;;;;;;17.02;15.35;;;21.70;99.90;;;21.64;100.00;100815.78;4964415;28;20050;-76
2022/07/21 00:57:47;;;;;;;15.60;13.88;;;21.70;99.90;;;21.75;100.00;100816.94;4964792;28;20043;-76
2022/07/21 01:00:19;;;;;;;16.48;14.82;;;21.60;99.90;;;21.77;100.00;100813.19;4963976;28;20057;-76
2022/07/21 01:02:46;;;;;;;16.95;14.75;;;21.60;99.90;;;21.66;100.00;100811.22;4948318;29;20123;-76
2022/07/21 01:05:15;;;;;;;18.23;16.38;;;21.60;99.90;;;21.65;100.00;100816.66;4963995;28;20043;-76
2022/07/21 01:07:48;;;;;;;18.65;15.98;;;21.60;99.90;;;21.61;100.00;100807.06;4964680;28;20043;-76
2022/07/21 01:10:17;;;;;;;18.85;16.85;;;21.60;99.90;;;21.49;100.00;100814.94;4948337;28;20047;-77
2022/07/21 01:12:45;;;;;;;18.52;16.58;;;21.50;99.90;;;21.55;100.00;100819.06;4964381;28;20428;-77
2022/07/21 01:15:14;;;;;;;21.02;16.73;;;21.50;99.90;;;21.54;100.00;100818.19;4948505;28;20047;-76
2022/07/21 01:17:42;;;;;;;19.27;17.23;;;21.50;99.90;;;21.50;100.00;100815.78;4964473;28;20039;-76
2022/07/21 01:20:13;;;;;;;19.30;17.30;;;21.50;99.90;;;21.43;100.00;100812.63;4979816;28;20043;-77
2022/07/21 01:22:44;;;;;;;18.70;16.95;;;21.50;99.90;;;21.47;100.00;100816.88;4963782;28;20519;-77
2022/07/21 01:25:12;;;;;;;19.55;17.48;;;21.50;99.90;;;21.48;100.00;100817.72;4980148;28;20061;-76
2022/07/21 01:27:39;;;;;;;19.40;17.50;;;21.40;99.90;;;21.49;100.00;100822.09;4980743;28;20130;-76
2022/07/21 01:30:08;;;;;;;20.05;18.02;;;21.40;99.90;;;21.45;100.00;100831.28;4979817;28;20058;-76
2022/07/21 01:32:40;;;;;;;19.33;17.42;;;21.40;99.90;;;21.46;100.00;100828.50;4979145;28;20448;-76
2022/07/21 01:35:10;;;;;;;19.13;17.27;;;21.40;99.90;;;21.47;100.00;100834.72;4979974;28;20070;-76
2022/07/21 01:37:45;;;;;;;20.27;18.17;;;21.40;99.90;;;21.49;100.00;100824.78;4948462;29;20172;-77
2022/07/21 01:42:59;;;;;;;19.67;17.58;;;21.40;99.90;;;21.44;100.00;100837.59;4977790;28;20433;-76
2022/07/21 01:45:27;;;;;;;22.00;17.75;;;21.40;99.90;;;21.36;100.00;100833.56;4963961;28;20050;-76
2022/07/21 01:47:54;;;;;;;18.65;16.83;;;21.30;99.90;;;21.35;100.00;100841.72;4940428;28;20036;-76
2022/07/21 01:50:26;;;;;;;19.52;17.73;;;21.30;99.90;;;21.39;100.00;100836.09;4961647;28;20047;-76
2022/07/21 01:52:56;;;;;;;20.35;18.35;;;21.30;99.90;;;21.31;100.00;100835.69;4962647;28;20568;-77
2022/07/21 01:55:24;;;;;;;;;;;21.30;99.90;;;21.42;100.00;100847.56;4982700;28;20142;-77
2022/07/21 01:57:52;;;;;;;18.67;16.35;;;21.30;99.90;;;21.34;100.00;100848.03;4966062;28;19962;-76
2022/07/21 02:00:20;;;;;;;20.55;16.65;;;21.30;99.90;;;21.35;100.00;100847.91;4965938;28;20122;-77
2022/07/21 02:02:47;;;;;;;18.05;16.13;;;21.30;99.90;;;21.36;100.00;100854.97;4965854;28;20043;-77
2022/07/21 02:05:14;;;;;;;19.52;17.55;;;21.30;99.90;;;21.23;100.00;100854.88;4950497;28;20094;-76
2022/07/21 02:07:41;;;;;;;19.40;16.63;;;21.30;99.90;;;21.28;100.00;100856.41;4964351;28;20062;-76
2022/07/21 02:10:09;;;;;;;18.90;16.00;;;21.30;99.90;;;21.28;100.00;100849.25;4951304;29;20409;-77
2022/07/21 02:12:36;;;;;;;17.55;15.70;;;21.20;99.90;;;21.30;100.00;100851.81;4983387;28;20039;-77
2022/07/21 02:15:04;;;;;;;19.25;17.25;;;21.20;99.90;;;21.24;100.00;100851.25;4950952;28;20043;-76
2022/07/21 02:17:31;;;;;;;18.98;17.00;;;21.20;99.90;;;21.22;100.00;100858.53;4977276;28;20035;-76
2022/07/21 02:19:58;;;;;;;19.00;17.10;;;21.20;99.90;;;21.17;100.00;100854.41;4994087;28;20512;-76
2022/07/21 02:22:25;;;;;;;18.75;16.77;;;21.10;99.90;;;21.30;100.00;100854.50;5002834;28;20057;-76
2022/07/21 02:24:52;;;;;;;19.92;17.60;;;21.10;99.90;;;21.24;100.00;100861.97;4986535;28;20050;-76
2022/07/21 02:27:19;;;;;;;17.33;15.63;;;21.20;99.90;;;21.23;100.00;100854.03;4987108;28;20050;-76
2022/07/21 02:29:46;;;;;;;20.35;18.25;;;21.20;99.90;;;21.18;100.00;100870.38;4984730;28;20096;-77
2022/07/21 02:32:13;;;;;;;18.48;16.55;;;21.20;99.90;;;21.17;100.00;100865.97;4963339;28;20445;-77
2022/07/21 02:34:40;;;;;;;18.13;16.23;;;21.10;99.90;;;21.19;100.00;100864.06;4933037;29;20058;-77
2022/07/21 02:37:07;;;;;;;19.00;16.05;;;21.10;99.90;;;21.25;100.00;100862.84;4963663;28;20050;-77
2022/07/21 02:39:34;;;;;;;18.15;16.35;;;21.20;99.90;;;21.30;100.00;100860.72;4963349;28;20140;-77
2022/07/21 02:42:01;;;;;;;19.60;16.98;;;21.10;99.90;;;21.24;100.00;100866.47;4947569;29;20517;-77
2022/07/21 02:44:30;;;;;;;17.63;15.90;;;21.10;99.90;;;21.23;100.00;100859.41;4963519;28;20047;-77
2022/07/21 02:46:57;;;;;;;18.77;17.08;;;21.20;99.90;;;21.22;100.00;100858.53;4970785;28;20051;-77
2022/07/21 02:49:24;;;;;;;18.30;16.52;;;21.20;99.90;;;21.21;100.00;100855.94;4985314;28;20049;-77
2022/07/21 02:51:50;;;;;;;18.85;16.42;;;21.10;99.90;;;21.15;100.00;100870.56;4985223;28;20054;-77
2022/07/21 02:54:17;;;;;;;18.38;16.55;;;21.10;99.90;;;21.17;100.00;100863.31;4968265;28;20058;-77
2022/07/21 02:56:44;;;;;;;19.80;17.05;;;21.10;99.90;;;21.06;100.00;100866.59;4970534;28;20117;-77
2022/07/21 02:59:11;;;;;;;17.77;16.08;;;21.10;99.90;;;21.16;100.00;100868.72;4969574;28;20417;-76
2022/07/21 03:01:38;;;;;;;17.95;16.15;;;21.00;99.90;;;21.18;100.00;100865.03;4985823;28;20055;-77
2022/07/21 03:04:06;;;;;;;18.25;16.45;;;21.10;99.90;;;21.17;100.00;100870.47;4985693;28;20146;-76
2022/07/21 03:06:34;;;;;;;18.48;16.52;;;21.00;99.90;;;21.18;100.00;100866.81;4985485;28;20126;-77
2022/07/21 03:09:01;;;;;;;20.05;18.08;;;21.00;99.90;;;21.16;100.00;100874.97;4985494;28;20045;-77
2022/07/21 03:11:28;;;;;;;19.88;17.77;;;21.10;99.90;;;21.05;100.00;100864.88;4986132;28;20042;-77
2022/07/21 03:13:55;;;;;;;19.90;18.00;;;21.00;99.90;;;21.06;100.00;100874.63;4985175;28;20047;-77
2022/07/21 03:16:22;;;;;;;19.15;17.15;;;21.00;99.90;;;21.03;100.00;100871.31;4986227;28;20460;-76
2022/07/21 03:18:49;;;;;;;19.63;17.63;;;21.00;99.90;;;21.10;100.00;100869.97;4985547;28;20510;-77
2022/07/21 03:21:16;;;;;;;17.42;15.63;;;21.00;99.90;;;21.10;100.00;100875.31;4971143;28;20709;-77
2022/07/21 03:23:45;;;;;;;20.60;18.15;;;20.90;99.90;;;21.00;100.00;100868.81;4961392;28;20039;-77
2022/07/21 03:26:14;;;;;;;21.95;16.00;;;21.00;99.90;;;21.07;100.00;100873.72;4966309;28;20078;-77
2022/07/21 03:28:44;;;;;;;20.77;18.58;;;21.00;99.90;;;20.95;100.00;100866.41;4950993;28;20036;-78
2022/07/21 03:31:11;;;;;;;17.73;15.95;;;20.90;99.90;;;21.05;100.00;100872.06;4961747;28;20047;-77
2022/07/21 03:33:38;;;;;;;18.73;16.83;;;20.90;99.90;;;20.97;100.00;100876.06;4975871;28;20049;-77
2022/07/21 03:36:07;;;;;;;17.50;15.73;;;20.90;99.90;;;21.04;100.00;100878.38;4991884;28;20059;-78
2022/07/21 03:38:34;;;;;;;19.10;17.17;;;20.90;99.90;;;21.01;100.00;100886.59;4953195;28;20055;-78
2022/07/21 03:41:01;;;;;;;17.50;15.68;;;20.90;99.90;;;21.03;100.00;100884.69;4967844;28;20073;-77
2022/07/21 03:43:28;;;;;;;19.35;17.33;;;20.90;99.90;;;21.04;100.00;100879.22;4988933;28;20043;-77
2022/07/21 03:45:55;;;;;;;18.50;16.63;;;20.90;99.90;;;21.00;100.00;100884.88;4975969;28;20054;-77
2022/07/21 03:48:22;;;;;;;18.63;16.83;;;20.90;99.90;;;21.04;100.00;100886.41;4965859;28;20059;-77
2022/07/21 03:50:49;;;;;;;18.98;16.98;;;21.00;99.90;;;21.00;100.00;100888.38;4965320;28;20051;-77
2022/07/21 03:53:16;;;;;;;18.40;16.60;;;21.00;99.90;;;20.99;100.00;100886.66;4966314;28;20051;-77
2022/07/21 03:55:43;;;;;;;17.10;15.40;;;21.00;99.90;;;21.01;100.00;100891.94;4950291;28;20048;-77
2022/07/21 03:58:12;;;;;;;19.13;17.30;;;21.00;99.90;;;20.92;100.00;100888.00;4965955;28;20047;-78
2022/07/21 04:00:42;;;;;;;19.30;16.98;;;20.90;99.90;;;20.95;100.00;100891.34;4964478;28;20419;-77
2022/07/21 04:03:11;;;;;;;18.65;16.73;;;20.90;99.90;;;21.01;100.00;100889.25;4967196;28;20054;-78
2022/07/21 04:05:40;;;;;;;17.15;15.55;;;20.90;99.90;;;21.03;100.00;100890.03;4977642;28;20063;-78
2022/07/21 04:08:10;;;;;;;18.48;16.27;;;20.90;99.90;;;21.10;100.00;100894.91;4982736;28;20142;-77
2022/07/21 04:10:40;;;;;;;19.35;17.35;;;20.90;99.90;;;21.08;100.00;100887.94;4966104;28;20039;-77
2022/07/21 04:13:11;;;;;;;19.70;17.80;;;20.90;99.90;;;21.03;100.00;100884.69;4966607;28;20697;-78
2022/07/21 04:15:39;;;;;;;19.13;17.38;;;21.00;99.90;;;21.07;100.00;100886.22;4966046;28;20050;-78
2022/07/21 04:18:07;;;;;;;18.83;16.90;;;20.90;99.90;;;21.01;100.00;100882.09;4966548;28;20117;-77
2022/07/21 04:20:34;;;;;;;18.55;16.58;;;21.00;99.90;;;21.07;100.00;100880.84;4965640;28;20043;-78
2022/07/21 04:23:02;;;;;;;20.08;18.00;;;21.00;99.90;;;21.12;100.00;100886.78;4982585;28;20053;-77
2022/07/21 04:25:29;;;;;;;19.05;17.15;;;20.90;99.90;;;21.11;100.00;100883.25;4951110;28;20043;-77
2022/07/21 04:27:58;;;;;;;19.55;17.50;;;21.00;99.90;;;21.17;100.00;100891.84;4965345;28;20118;-77
2022/07/21 04:30:26;;;;;;;19.00;16.95;;;21.00;99.90;;;21.11;100.00;100893.97;4965267;28;20043;-77
2022/07/21 04:32:53;;;;;;;19.02;17.02;;;21.00;99.90;;;21.14;100.00;100898.25;4949910;28;20047;-77
2022/07/21 04:35:20;;;;;;;18.73;16.52;;;21.10;99.90;;;21.10;100.00;100907.41;4982904;28;20078;-77
2022/07/21 04:37:48;;;;;;;20.38;18.38;;;21.10;99.90;;;21.00;100.00;100911.63;4966897;28;20057;-77
2022/07/21 04:40:15;;;;;;;19.17;17.45;;;21.10;99.90;;;21.12;100.00;100913.53;4982472;28;20852;-77
2022/07/21 04:42:43;;;;;;;17.98;16.15;;;21.10;99.90;;;21.15;100.00;100908.03;4981485;28;20057;-77
2022/07/21 04:45:13;;;;;;;19.70;16.92;;;21.10;99.90;;;21.10;100.00;100902.06;4983053;28;20047;-76
2022/07/21 04:47:52;;;;;;;19.02;17.23;;;21.10;99.90;;;21.15;100.00;100918.72;4990594;28;20050;-76
2022/07/21 04:50:22;;;;;;;19.77;17.67;;;21.10;99.90;;;21.13;100.00;100917.94;4982621;28;20488;-77
2022/07/21 04:52:50;;;;;;;19.83;17.80;;;21.00;99.90;;;21.13;100.00;100920.59;4982622;28;20047;-77
2022/07/21 04:55:19;;;;;;;18.27;16.67;;;21.10;99.90;;;21.13;100.00;100919.75;4982697;28;20055;-77
2022/07/21 04:57:49;;;;;;;20.40;18.30;;;21.00;99.90;;;21.08;100.00;100930.72;4986236;28;20143;-77
2022/07/21 05:00:24;;;;;;;17.65;15.88;;;21.10;99.90;;;21.10;100.00;100940.41;4983551;28;20035;-78
2022/07/21 05:02:54;;;;;;;18.65;16.67;;;21.00;99.90;;;21.14;100.00;100935.69;4983236;28;20130;-78
2022/07/21 05:05:21;;;;;;;18.60;16.90;;;21.10;99.90;;;21.09;100.00;100940.47;4983990;28;20067;-77
2022/07/21 05:07:48;;;;;;;19.85;17.52;;;21.00;99.90;;;21.23;100.00;100935.16;4968095;28;20042;-78
2022/07/21 05:10:17;;;;;;;18.45;16.65;;;21.10;99.90;;;21.30;100.00;100956.19;4983166;28;20502;-75
2022/07/21 05:12:45;;;;;;;21.05;16.27;;;21.10;99.90;;;21.33;100.00;100943.50;4980114;28;20039;-76
2022/07/21 05:15:12;;;;;;;19.48;17.67;;;21.20;99.90;;;21.28;100.00;100942.91;4976370;28;20142;-75
2022/07/21 05:17:40;;;;;;;19.60;17.75;;;21.30;99.90;;;21.42;100.00;100939.41;4954934;28;20043;-74
2022/07/21 05:20:10;;;;;;;18.85;17.02;;;21.30;99.90;;;21.46;100.00;100946.28;4972411;28;20050;-74
2022/07/21 05:22:40;;;;;;;18.52;16.90;;;21.30;99.90;;;21.42;100.00;100950.09;4983812;28;20054;-74
2022/07/21 05:25:07;;;;;;;19.85;17.95;;;21.40;99.90;;;21.54;100.00;100957.41;4974913;28;20039;-78
2022/07/21 05:27:35;;;;;;;19.00;17.27;;;21.40;99.90;;;21.51;100.00;100960.25;4989546;28;20128;-77
2022/07/21 05:30:04;;;;;;;19.65;17.67;;;21.40;99.90;;;21.48;100.00;100947.06;4978784;28;20382;-78
2022/07/21 05:32:31;;;;;;;21.08;18.88;;;21.40;99.90;;;21.39;100.00;100943.13;4975578;28;20058;-78
2022/07/21 05:34:59;;;;;;;20.83;17.45;;;21.40;99.90;;;21.42;100.00;100949.25;4968894;28;20720;-79
2022/07/21 05:37:27;;;;;;;18.55;16.88;;;21.40;99.90;;;21.40;100.00;100946.66;4970173;28;20043;-78
2022/07/21 05:39:54;;;;;;;19.25;17.25;;;21.40;99.90;;;21.46;100.00;100951.63;4976120;28;20069;-78
2022/07/21 05:42:21;;;;;;;18.20;16.38;;;21.30;99.90;;;21.44;100.00;100952.69;4983516;28;20046;-77
2022/07/21 05:44:48;;;;;;;18.45;16.70;;;21.40;99.90;;;21.42;100.00;100942.06;5008364;28;20061;-78
2022/07/21 05:47:15;;;;;;;18.98;16.50;;;21.40;99.90;;;21.44;100.00;100933.97;4985440;28;20047;-79
2022/07/21 05:49:42;;;;;;;19.80;17.98;;;21.40;99.90;;;21.39;100.00;100943.13;5003614;28;20049;-77
2022/07/21 05:52:09;;;;;;;19.27;17.23;;;21.40;99.90;;;21.43;100.00;100943.78;4985667;28;20106;-77
2022/07/21 05:54:36;;;;;;;18.48;16.67;;;21.40;99.90;;;21.45;100.00;100939.19;4964756;28;20515;-77
2022/07/21 05:57:04;;;;;;;20.65;18.55;;;21.90;99.90;;;21.39;100.00;100937.78;4941209;28;20055;-78
2022/07/21 05:59:31;;;;;;;19.15;16.92;;;21.40;99.90;;;21.49;100.00;100945.25;4961961;28;20142;-78
2022/07/21 06:01:58;;;;;;;19.27;17.55;;;21.40;99.90;;;21.48;100.00;100947.06;4945212;28;20055;-77
2022/07/21 06:04:25;;;;;;;19.92;17.92;;;21.40;99.90;;;21.46;100.00;100942.75;4969284;28;20051;-78
2022/07/21 06:06:52;;;;;;;22.15;18.73;;;21.40;99.90;;;21.44;100.00;100936.63;4969807;28;20043;-78
2022/07/21 06:09:20;;;;;;;20.13;18.13;;;21.50;99.90;;;21.43;100.00;100946.47;4987942;28;20098;-78
2022/07/21 06:11:52;;;;;;;19.60;17.70;;;21.40;99.90;;;21.44;100.00;100942.84;4979115;28;20055;-78
2022/07/21 06:14:19;;;;;;;19.88;17.98;;;21.30;99.90;;;21.43;100.00;100945.63;4969731;28;20163;-77
2022/07/21 06:16:46;;;;;;;19.65;16.55;;;21.30;99.90;;;21.42;100.00;100959.97;4955284;28;20059;-77
2022/07/21 06:19:13;;;;;;;18.45;16.80;;;21.30;99.90;;;21.46;100.00;100958.81;4967801;28;20046;-78
2022/07/21 06:21:40;;;;;;;18.65;16.85;;;21.40;99.90;;;21.53;100.00;100970.84;4978020;28;20083;-78
2022/07/21 06:24:13;;;;;;;17.52;15.95;;;21.40;99.90;;;21.57;100.00;100966.19;4988335;28;20102;-77
2022/07/21 06:26:40;;;;;;;19.35;17.30;;;21.40;99.90;;;21.70;100.00;100956.47;4980497;28;20572;-78
2022/07/21 06:29:07;;;;;;;19.45;17.45;;;21.50;99.90;;;21.76;100.00;100964.13;4977188;28;20047;-80
2022/07/21 06:31:34;;;;;;;17.13;15.43;;;21.60;99.90;;;21.91;100.00;100961.44;4972719;28;20082;-79
2022/07/21 06:34:02;;;;;;;17.85;16.05;;;21.60;99.90;;;22.00;100.00;100960.00;4980120;28;20047;-78
2022/07/21 06:36:29;;;;;;;15.40;13.90;;;21.70;99.90;;;22.15;100.00;100958.19;4997973;28;20039;-78
2022/07/21 06:38:59;;;;;;;;;;;21.80;99.90;;;22.27;100.00;100953.84;4986941;28;20043;-77
2022/07/21 06:41:26;;;;;;;15.63;14.23;;;22.00;99.90;;;22.34;100.00;100950.69;4961179;28;19930;-80
2022/07/21 06:43:53;;;;;;;14.77;13.30;;;22.10;99.90;;;22.38;100.00;100952.19;4941656;28;20061;-78
2022/07/21 06:46:21;;;;;;;12.98;11.75;;;22.20;99.90;;;22.42;100.00;100960.91;4958370;29;20050;-79
2022/07/21 06:48:48;;;;;;;13.50;12.13;;;22.30;99.90;;;22.49;100.00;100956.91;4993081;28;20055;-77
2022/07/21 06:51:17;;;;;;;12.73;11.35;;;22.30;99.90;;;22.53;100.00;100962.91;4990372;28;20043;-79
2022/07/21 06:53:44;;;;;;;14.65;12.25;;;22.40;99.90;;;22.46;100.00;100961.59;4991881;28;20044;-79
2022/07/21 06:56:11;;;;;;;13.77;12.50;;;22.40;99.90;;;22.51;100.00;100960.34;4957074;28;20055;-79
2022/07/21 06:58:38;;;;;;;14.48;13.00;;;22.40;99.90;;;22.48;100.00;100968.59;4990733;28;20046;-81
2022/07/21 07:01:07;;;;;;;17.20;13.77;;;22.40;99.90;;;22.58;100.00;100974.22;4979413;28;20582;-77
2022/07/21 07:03:36;;;;;;;15.07;13.75;;;22.40;99.90;;;22.56;100.00;100972.59;4971441;28;20294;-78
2022/07/21 07:06:05;;;;;;;14.45;12.45;;;22.40;99.90;;;22.64;100.00;100971.13;4965795;28;20073;-79
2022/07/21 07:08:33;;;;;;;13.93;12.52;;;22.50;99.90;;;22.70;100.00;100967.19;4972389;28;20054;-80
2022/07/21 07:11:00;;;;;;;12.60;11.30;;;22.60;99.90;;;22.79;100.00;100973.75;4986484;28;20050;-77
2022/07/21 07:13:27;;;;;;;14.43;11.45;;;22.60;99.90;;;22.77;100.00;100964.97;4964673;28;20071;-80
2022/07/21 07:16:14;;;;;;;13.95;12.50;;;22.70;99.90;;;22.76;100.00;100980.19;4985790;28;20051;-80
2022/07/21 07:18:41;;;;;;;16.35;13.30;;;22.70;99.90;;;22.74;100.00;100982.09;4951156;28;20477;-78
2022/07/21 07:21:08;;;;;;;13.15;11.75;;;22.70;99.90;;;22.72;100.00;100984.03;4970216;28;20047;-80
2022/07/21 07:23:38;;;;;;;14.02;12.23;;;22.60;99.90;;;22.81;100.00;100985.25;4972255;28;20043;-79
2022/07/21 07:26:07;;;;;;;14.13;12.70;;;22.60;99.90;;;22.78;100.00;100988.97;4977332;28;20051;-79
2022/07/21 07:28:34;;;;;;;14.73;13.07;;;22.70;99.90;;;22.74;100.00;100983.94;4976082;28;20043;-79
2022/07/21 07:31:01;;;;;;;15.75;12.88;;;22.70;99.90;;;22.78;100.00;100991.66;4963002;28;20051;-79
2022/07/21 07:33:28;;;;;;;20.70;13.65;;;22.70;99.90;;;22.84;100.00;100989.56;4993330;28;20047;-78
2022/07/21 07:35:57;;;;;;;12.65;11.45;;;22.70;99.90;;;22.92;100.00;100993.44;4976810;28;20058;-79
2022/07/21 07:38:24;;;;;;;12.48;11.38;;;22.80;99.90;;;23.06;100.00;100997.88;4943743;29;20062;-79
2022/07/21 07:40:51;;;;;;;14.55;13.02;;;22.90;99.90;;;23.04;100.00;100993.59;4975026;28;20047;-79
2022/07/21 07:43:19;;;;;;;14.90;12.05;;;22.90;99.90;;;23.09;100.00;100996.84;4985493;28;20051;-77
2022/07/21 07:45:46;;;;;;;13.35;11.95;;;22.90;99.90;;;22.92;100.00;100988.09;4983829;28;20146;-77
2022/07/21 07:48:13;;;;;;;14.60;11.93;;;22.90;99.90;;;22.86;100.00;100990.31;4982639;28;20043;-78
2022/07/21 07:50:40;;;;;;;13.63;12.10;;;22.90;99.90;;;22.97;100.00;100993.16;4969567;28;20047;-79
2022/07/21 07:53:07;;;;;;;13.57;12.15;;;22.90;99.90;;;;;;4984522;28;20055;-77
2022/07/21 07:55:34;;;;;;;12.57;11.27;;;22.90;99.90;;;23.04;100.00;100983.72;4974129;28;20044;-77
2022/07/21 07:58:02;;;;;;;11.57;10.40;;;22.90;99.90;;;23.03;100.00;100975.78;4966082;28;20510;-75
2022/07/21 08:00:29;;;;;;;12.05;10.13;;;23.00;99.90;;;23.07;100.00;100983.50;4974005;28;20069;-77
2022/07/21 08:03:16;;;;;;;11.35;10.35;;;23.00;99.50;;;22.95;100.00;100987.88;4967467;28;20497;-74
2022/07/21 08:05:43;;;;;;;11.00;10.00;;;23.00;99.50;;;23.05;100.00;100988.13;4980068;28;20051;-75
2022/07/21 08:08:11;;;;;;;13.05;9.60;;;23.00;99.50;;;23.21;100.00;100990.66;4971675;28;20158;-76
2022/07/21 08:10:39;;;;;;;11.82;10.68;;;23.00;99.20;;;23.21;100.00;100987.97;4997443;28;20035;-75
2022/07/21 08:13:11;;;;;;;10.90;9.90;;;23.10;99.40;;;23.30;100.00;100983.81;4950544;28;20051;-75
2022/07/21 08:15:38;;;;;;;13.65;11.40;;;23.20;99.50;;;23.26;100.00;100987.69;4965010;28;20051;-75
2022/07/21 08:18:06;;;;;;;14.82;10.77;;;23.30;99.40;;;23.33;100.00;100977.34;4965024;28;20061;-75
2022/07/21 08:20:34;;;;;;;14.93;11.70;;;23.20;99.60;;;23.22;100.00;100984.31;4949855;28;20043;-75
2022/07/21 08:23:02;;;;;;;11.70;10.50;;;23.20;99.50;;;23.20;100.00;100982.69;4950219;28;20279;-74
2022/07/21 08:25:29;;;;;;;12.07;10.98;;;23.20;99.60;;;23.37;100.00;100977.06;4980947;28;20058;-73
2022/07/21 08:27:57;;;;;;;11.77;10.57;;;23.20;99.50;;;23.49;100.00;100979.88;4965506;28;20067;-74
2022/07/21 08:30:24;;;;;;;13.02;10.05;;;23.30;99.40;;;23.42;100.00;100982.09;4964578;28;20673;-76
2022/07/21 08:33:00;;;;;;;11.07;10.00;;;23.40;99.40;;;23.53;100.00;100985.88;4951347;29;20144;-75
2022/07/21 08:35:28;;;;;;;12.38;10.95;;;23.30;99.40;;;23.53;100.00;100981.38;4963936;28;20071;-75
2022/07/21 08:38:01;;;;;;;11.80;10.63;;;23.40;99.00;;;23.59;100.00;100980.09;4963925;28;20067;-75
2022/07/21 08:40:32;;;;;;;11.20;10.00;;;23.50;98.90;;;23.74;100.00;100981.69;4964651;28;20069;-77
2022/07/21 08:43:00;;;;;;;11.13;10.10;;;23.60;99.10;;;23.84;100.00;100981.06;4964250;28;20070;-78
2022/07/21 08:45:29;;;;;;;11.68;10.18;;;23.70;98.50;;;23.82;100.00;100975.78;4967826;28;20039;-78
2022/07/21 08:47:59;;;;;;;10.73;9.57;;;23.80;98.30;;;23.64;100.00;100976.13;4955110;28;20524;-76
2022/07/21 08:50:30;;;;;;;12.13;9.83;;;23.70;98.10;;;23.77;100.00;100983.31;4964900;28;20074;-78
2022/07/21 08:52:58;;;;;;;10.55;9.52;;;23.70;99.00;;;23.77;100.00;100988.69;4965170;28;20318;-77
2022/07/21 08:55:32;;;;;;;12.15;10.65;;;23.70;99.40;;;23.72;100.00;100985.44;4950847;28;20245;-77
2022/07/21 08:57:59;;;;;;;12.05;10.85;;;23.70;99.20;;;23.74;100.00;100978.16;4980705;28;20075;-77
2022/07/21 09:00:27;;;;;;;13.57;9.30;;;23.70;99.20;;;23.86;100.00;100982.66;4970893;28;20070;-79
2022/07/21 09:03:19;;;;;;;12.05;10.85;;;23.70;98.70;;;23.95;100.00;100981.13;4996584;28;20077;-78
2022/07/21 09:06:19;;;;;;;11.30;10.25;;;23.80;99.10;;;24.01;100.00;100974.47;5001551;28;20050;-76
2022/07/21 09:08:54;;;;;;;11.18;9.90;;;23.80;99.40;;;23.97;100.00;100970.28;4985324;28;20055;-77
2022/07/21 09:11:30;;;;;;;11.82;9.85;;;23.80;99.60;;;23.99;100.00;100969.22;5009738;28;20665;-79
2022/07/21 09:14:15;;;;;;;11.98;10.65;;;23.90;99.90;;;23.90;100.00;100964.50;5003180;28;20067;-79
2022/07/21 09:16:47;;;;;;;10.73;9.85;;;23.80;99.80;;;24.03;100.00;100957.31;4990630;28;20051;-78
2022/07/21 09:19:19;;;;;;;9.80;8.77;;;23.80;99.30;;;24.08;100.00;100962.34;4993951;28;20042;-78
2022/07/21 09:21:47;;;;;;;10.07;9.15;;;23.90;98.60;;;24.11;100.00;100961.25;4989923;28;20053;-78
2022/07/21 09:24:38;;;;;;;9.90;8.98;;;24.00;98.30;;;24.19;100.00;100964.25;5002883;28;20789;-78
2022/07/21 09:27:11;;;;;;;12.50;9.45;;;24.00;98.20;;;24.31;100.00;100966.06;4974577;28;20098;-79
2022/07/21 09:29:53;;;;;;;9.95;8.95;;;24.10;98.30;;;24.45;100.00;100956.13;4985472;28;20114;-78
2022/07/21 09:32:33;;;;;;;9.82;8.27;;;24.20;98.00;;;24.41;100.00;100960.00;4992185;28;20043;-76
2022/07/21 09:35:14;;;;;;;9.90;8.52;;;24.30;97.40;;;24.56;100.00;100966.94;5006271;28;20054;-79
2022/07/21 09:37:42;;;;;;;9.68;7.93;;;24.40;97.40;;;24.61;100.00;100959.41;4981404;28;20073;-79
2022/07/21 09:40:13;;;;;;;9.50;8.05;;;24.40;97.00;;;24.82;100.00;100968.69;4995205;28;20043;-78
2022/07/21 09:42:48;;;;;;;8.88;8.02;;;24.50;97.30;;;24.98;100.00;100958.50;4988299;28;20050;-77
2022/07/21 09:45:17;;;;;;;10.18;8.52;;;24.70;97.00;;;25.04;100.00;100951.78;4990907;28;20342;-76
2022/07/21 09:47:45;;;;;;;9.38;8.48;;;24.70;96.80;;;25.23;100.00;100959.31;4982620;28;20049;-78
2022/07/21 09:50:16;;;;;;;8.82;7.85;;;25.00;96.40;;;25.20;100.00;100948.78;5006521;28;20050;-77
2022/07/21 09:52:54;;;;;;;9.32;7.40;;;25.00;95.90;;;25.13;100.00;100943.00;4975691;28;20078;-77
2022/07/21 09:55:22;;;;;;;9.73;8.13;;;25.00;95.80;;;25.28;100.00;100942.78;4985724;28;20047;-78
2022/07/21 09:57:49;;;;;;;8.75;7.85;;;25.10;96.00;;;25.26;100.00;100950.13;4961107;28;20074;-77
2022/07/21 10:00:19;;;;;;;7.18;6.55;;;25.10;95.50;;;25.39;100.00;100936.56;4978176;28;20075;-77
2022/07/21 10:02:48;;;;;;;8.30;7.50;;;25.10;95.50;;;25.46;100.00;100953.97;4978844;28;20043;-78
2022/07/21 10:05:21;;;;;;;9.07;7.25;;;25.30;95.50;;;25.48;100.00;100944.81;4971404;28;20075;-77